createdAt,value
2022-09-25T00:00:45.405Z,10.75
2022-09-25T00:03:12.903Z,10.57
2022-09-25T00:05:41.319Z,10.35
2022-09-25T00:08:09.139Z,10.77
2022-09-25T00:10:43.762Z,10.80
2022-09-25T00:13:11.426Z,12.32
2022-09-25T00:15:38.404Z,9.50
2022-09-25T00:18:05.217Z,8.32
2022-09-25T00:20:32.114Z,9.55
2022-09-25T00:23:02.642Z,11.68
2022-09-25T00:25:29.423Z,8.60
2022-09-25T00:27:56.410Z,10.98
2022-09-25T00:30:24.052Z,12.60
2022-09-25T00:32:50.880Z,10.98
2022-09-25T00:35:17.705Z,11.82
2022-09-25T00:37:44.425Z,9.75
2022-09-25T00:40:11.430Z,11.75
2022-09-25T00:42:38.348Z,11.63
2022-09-25T00:45:06.731Z,12.75
2022-09-25T00:48:06.671Z,13.48
2022-09-25T00:50:40.406Z,11.13
2022-09-25T00:53:17.980Z,8.27
2022-09-25T00:55:45.589Z,10.98
2022-09-25T00:58:15.109Z,12.02
2022-09-25T01:03:23.128Z,10.70
2022-09-25T01:05:50.172Z,12.52
2022-09-25T01:08:23.279Z,10.27
2022-09-25T01:10:50.725Z,11.32
2022-09-25T01:13:18.219Z,13.35
2022-09-25T01:15:57.407Z,13.48
2022-09-25T01:18:46.021Z,14.38
2022-09-25T01:21:20.155Z,15.63
2022-09-25T01:24:24.631Z,13.40
2022-09-25T01:27:42.377Z,13.13
2022-09-25T01:30:15.163Z,11.88
2022-09-25T01:33:01.311Z,11.70
2022-09-25T01:35:49.054Z,12.55
2022-09-25T01:38:38.302Z,13.35
2022-09-25T01:41:23.389Z,12.13
2022-09-25T01:44:06.401Z,12.85
2022-09-25T01:46:41.507Z,13.18
2022-09-25T01:49:22.037Z,12.07
2022-09-25T01:51:52.570Z,14.25
2022-09-25T01:54:23.358Z,12.32
2022-09-25T01:56:56.921Z,15.85
2022-09-25T01:59:46.873Z,16.65
2022-09-25T02:02:19.586Z,12.57
2022-09-25T02:04:51.402Z,13.90
2022-09-25T02:07:22.672Z,14.90
2022-09-25T02:09:53.635Z,17.63
2022-09-25T02:12:34.570Z,14.00
2022-09-25T02:15:06.166Z,16.35
2022-09-25T02:17:58.505Z,11.75
2022-09-25T02:20:34.464Z,14.93
2022-09-25T02:23:08.852Z,17.90
2022-09-25T02:25:42.810Z,15.43
2022-09-25T02:28:10.232Z,12.82
2022-09-25T02:30:36.922Z,13.48
2022-09-25T02:33:04.098Z,11.68
2022-09-25T02:35:31.506Z,14.43
2022-09-25T02:37:58.275Z,18.27
2022-09-25T02:40:44.461Z,16.30
2022-09-25T02:43:21.742Z,12.30
2022-09-25T02:46:01.400Z,13.20
2022-09-25T02:48:36.592Z,12.20
2022-09-25T02:51:15.119Z,13.60
2022-09-25T02:53:46.828Z,13.68
2022-09-25T02:57:09.270Z,14.60
2022-09-25T02:59:43.203Z,12.15
2022-09-25T03:02:12.359Z,13.32
2022-09-25T03:04:39.641Z,11.70
2022-09-25T03:07:07.146Z,13.30
2022-09-25T03:09:36.616Z,12.85
2022-09-25T03:12:05.282Z,19.88
2022-09-25T03:14:32.636Z,12.85
2022-09-25T03:17:03.845Z,12.98
2022-09-25T03:19:32.168Z,14.30
2022-09-25T03:22:02.697Z,12.52
2022-09-25T03:24:29.662Z,12.60
2022-09-25T03:26:58.466Z,14.48
2022-09-25T03:29:25.501Z,12.68
2022-09-25T03:31:52.181Z,14.20
2022-09-25T03:34:19.895Z,14.68
2022-09-25T03:36:49.701Z,16.08
2022-09-25T03:39:18.152Z,14.70
2022-09-25T03:41:45.424Z,13.35
2022-09-25T03:44:12.592Z,12.02
2022-09-25T03:46:39.646Z,11.38
2022-09-25T03:49:06.561Z,15.10
2022-09-25T03:51:34.014Z,13.80
2022-09-25T03:54:01.424Z,12.20
2022-09-25T03:56:29.974Z,15.55
2022-09-25T03:58:57.453Z,13.85
2022-09-25T04:01:25.928Z,13.32
2022-09-25T04:03:53.098Z,13.10
2022-09-25T04:06:24.574Z,13.98
2022-09-25T04:08:52.921Z,13.25
2022-09-25T04:11:21.267Z,12.60
2022-09-25T04:13:48.323Z,12.73
2022-09-25T04:16:19.664Z,14.93
2022-09-25T04:18:46.426Z,15.73
2022-09-25T04:21:14.474Z,12.95
2022-09-25T04:23:41.664Z,12.48
2022-09-25T04:26:08.627Z,12.75
2022-09-25T04:28:35.778Z,15.32
2022-09-25T04:31:04.034Z,22.58
2022-09-25T04:33:46.688Z,17.65
2022-09-25T04:36:14.669Z,18.00
2022-09-25T04:38:41.891Z,15.77
2022-09-25T04:41:08.563Z,15.85
2022-09-25T04:43:35.682Z,14.98
2022-09-25T04:46:04.640Z,17.10
2022-09-25T04:48:32.686Z,14.65
2022-09-25T04:50:59.510Z,17.33
2022-09-25T04:53:27.572Z,13.30
2022-09-25T04:55:57.098Z,15.20
2022-09-25T04:58:23.850Z,12.52
2022-09-25T05:00:51.247Z,14.82
2022-09-25T05:03:18.440Z,13.15
2022-09-25T05:05:45.222Z,14.27
2022-09-25T05:08:12.081Z,12.18
2022-09-25T05:10:42.343Z,13.60
2022-09-25T05:13:11.461Z,11.77
2022-09-25T05:15:38.102Z,15.73
2022-09-25T05:18:22.338Z,12.88
2022-09-25T05:20:49.985Z,14.98
2022-09-25T05:23:17.533Z,12.65
2022-09-25T05:25:44.716Z,17.55
2022-09-25T05:28:11.713Z,14.05
2022-09-25T05:30:39.146Z,14.55
2022-09-25T05:33:06.529Z,12.98
2022-09-25T05:35:33.723Z,12.68
2022-09-25T05:38:00.428Z,11.95
2022-09-25T05:40:27.348Z,11.50
2022-09-25T05:42:55.577Z,11.95
2022-09-25T05:45:23.749Z,14.38
2022-09-25T05:48:01.636Z,18.25
2022-09-25T05:50:28.988Z,14.23
2022-09-25T05:52:57.878Z,14.48
2022-09-25T05:55:25.132Z,15.52
2022-09-25T05:57:51.929Z,13.40
2022-09-25T06:00:18.936Z,15.52
2022-09-25T06:02:45.986Z,14.77
2022-09-25T06:05:12.702Z,16.63
2022-09-25T06:07:39.389Z,16.20
2022-09-25T06:10:06.876Z,14.35
2022-09-25T06:12:33.877Z,14.32
2022-09-25T06:15:00.891Z,14.18
2022-09-25T06:17:28.115Z,14.90
2022-09-25T06:19:54.893Z,14.95
2022-09-25T06:22:21.656Z,13.93
2022-09-25T06:24:49.408Z,14.38
2022-09-25T06:27:16.247Z,14.88
2022-09-25T06:29:42.988Z,12.05
2022-09-25T06:32:10.375Z,13.40
2022-09-25T06:34:37.556Z,13.68
2022-09-25T06:37:04.214Z,14.27
2022-09-25T06:39:33.413Z,14.82
2022-09-25T06:42:00.154Z,15.95
2022-09-25T06:44:28.487Z,16.08
2022-09-25T06:46:55.215Z,15.32
2022-09-25T06:49:22.115Z,15.93
2022-09-25T06:51:51.192Z,14.85
2022-09-25T06:54:18.200Z,14.40
2022-09-25T06:56:49.288Z,14.30
2022-09-25T06:59:16.329Z,16.45
2022-09-25T07:01:43.216Z,15.20
2022-09-25T07:04:10.431Z,12.80
2022-09-25T07:06:37.869Z,15.55
2022-09-25T07:09:04.908Z,17.15
2022-09-25T07:11:32.310Z,15.85
2022-09-25T07:13:59.121Z,18.75
2022-09-25T07:16:28.529Z,14.02
2022-09-25T07:18:57.469Z,17.70
2022-09-25T07:21:25.416Z,18.73
2022-09-25T07:23:52.610Z,16.48
2022-09-25T07:26:22.710Z,16.05
2022-09-25T07:29:04.581Z,15.57
2022-09-25T07:31:33.556Z,15.35
2022-09-25T07:34:03.100Z,18.83
2022-09-25T07:36:30.049Z,15.95
2022-09-25T07:38:56.670Z,17.70
2022-09-25T07:41:23.895Z,19.50
2022-09-25T07:44:11.973Z,18.05
2022-09-25T07:46:44.969Z,18.77
2022-09-25T07:49:12.241Z,18.08
2022-09-25T07:51:39.066Z,16.65
2022-09-25T07:54:06.122Z,17.95
2022-09-25T07:56:34.751Z,17.73
2022-09-25T07:59:01.711Z,19.00
2022-09-25T08:01:28.854Z,18.80
2022-09-25T08:03:55.570Z,19.17
2022-09-25T08:06:22.421Z,20.88
2022-09-25T08:08:49.037Z,20.00
2022-09-25T08:11:17.794Z,19.65
2022-09-25T08:13:44.976Z,22.35
2022-09-25T08:16:14.021Z,20.27
2022-09-25T08:18:42.372Z,20.25
2022-09-25T08:21:10.454Z,24.33
2022-09-25T08:23:37.149Z,20.95
2022-09-25T08:26:04.283Z,20.88
2022-09-25T08:28:31.135Z,17.80
2022-09-25T08:31:04.827Z,16.98
2022-09-25T08:33:32.575Z,16.77
2022-09-25T08:36:04.964Z,18.08
2022-09-25T08:38:35.170Z,16.75
2022-09-25T08:41:19.458Z,17.40
2022-09-25T08:44:05.527Z,17.60
2022-09-25T08:47:37.592Z,16.08
2022-09-25T08:50:16.812Z,16.38
2022-09-25T08:52:46.383Z,18.05
2022-09-25T08:55:49.624Z,17.92
2022-09-25T08:58:24.992Z,18.05
2022-09-25T09:00:56.420Z,18.05
2022-09-25T09:03:25.866Z,16.55
2022-09-25T09:05:59.111Z,17.73
2022-09-25T09:08:28.810Z,16.83
2022-09-25T09:11:02.150Z,16.08
2022-09-25T09:13:54.244Z,16.35
2022-09-25T09:16:47.106Z,16.85
2022-09-25T09:19:14.420Z,15.55
2022-09-25T09:22:26.329Z,13.65
2022-09-25T09:25:26.024Z,13.18
2022-09-25T09:28:51.588Z,14.80
2022-09-25T09:32:07.803Z,16.63
2022-09-25T09:35:07.616Z,14.50
2022-09-25T09:37:50.289Z,13.23
2022-09-25T09:40:26.328Z,11.60
2022-09-25T09:43:24.115Z,12.70
2022-09-25T09:45:59.469Z,11.70
2022-09-25T09:49:16.978Z,9.63
2022-09-25T09:52:24.280Z,8.55
2022-09-25T09:54:57.665Z,8.95
2022-09-25T09:57:29.084Z,8.50
2022-09-25T10:00:15.347Z,8.80
2022-09-25T10:02:45.388Z,9.25
2022-09-25T10:05:34.545Z,10.90
2022-09-25T10:08:01.588Z,8.35
2022-09-25T10:10:37.524Z,10.10
2022-09-25T10:13:07.498Z,9.73
2022-09-25T10:15:39.194Z,7.72
2022-09-25T10:18:07.412Z,8.48
2022-09-25T10:20:41.640Z,9.95
2022-09-25T10:23:41.659Z,8.48
2022-09-25T10:26:26.464Z,8.30
2022-09-25T10:28:57.784Z,8.90
2022-09-25T10:31:28.478Z,7.88
2022-09-25T10:34:22.493Z,11.82
2022-09-25T10:36:51.952Z,7.80
2022-09-25T10:39:48.976Z,9.35
2022-09-25T10:42:38.045Z,8.38
2022-09-25T10:45:43.677Z,7.05
2022-09-25T10:48:48.006Z,7.07
2022-09-25T10:51:18.698Z,6.75
2022-09-25T10:53:46.587Z,7.78
2022-09-25T10:56:28.186Z,7.60
2022-09-25T10:58:57.572Z,7.57
2022-09-25T11:01:36.400Z,8.05
2022-09-25T11:04:06.759Z,7.00
2022-09-25T11:06:35.013Z,6.57
2022-09-25T11:09:18.345Z,6.72
2022-09-25T11:11:47.228Z,8.35
2022-09-25T11:14:34.721Z,6.05
2022-09-25T11:17:06.087Z,5.82
2022-09-25T11:19:35.570Z,5.75
2022-09-25T11:22:30.668Z,11.88
2022-09-25T11:25:11.934Z,5.35
2022-09-25T11:27:48.003Z,8.55
2022-09-25T11:30:19.243Z,6.32
2022-09-25T11:32:54.895Z,6.60
2022-09-25T11:35:30.137Z,8.23
2022-09-25T11:38:54.989Z,5.80
2022-09-25T11:41:52.061Z,5.50
2022-09-25T11:44:58.107Z,7.40
2022-09-25T11:48:06.888Z,7.25
2022-09-25T11:50:59.024Z,6.70
2022-09-25T11:53:43.885Z,6.03
2022-09-25T11:56:42.858Z,5.78
2022-09-25T11:59:32.761Z,6.40
2022-09-25T12:02:14.603Z,6.88
2022-09-25T12:05:09.096Z,8.80
2022-09-25T12:08:15.636Z,6.85
2022-09-25T12:11:11.674Z,8.30
2022-09-25T12:13:41.717Z,8.38
2022-09-25T12:16:31.799Z,7.97
2022-09-25T12:19:09.717Z,11.75
2022-09-25T12:21:52.710Z,7.50
2022-09-25T12:24:44.576Z,8.05
2022-09-25T12:27:42.606Z,7.95
2022-09-25T12:30:24.111Z,7.10
2022-09-25T12:33:20.296Z,6.38
2022-09-25T12:36:08.298Z,7.55
2022-09-25T12:38:57.984Z,5.80
2022-09-25T12:41:41.145Z,6.00
2022-09-25T12:44:15.248Z,6.07
2022-09-25T12:46:47.874Z,8.32
2022-09-25T12:49:27.758Z,7.75
2022-09-25T12:51:58.075Z,5.35
2022-09-25T12:54:48.864Z,4.70
2022-09-25T12:57:20.421Z,5.05
2022-09-25T12:59:53.091Z,5.45
2022-09-25T13:02:39.612Z,7.22
2022-09-25T13:05:16.875Z,3.65
2022-09-25T13:07:54.694Z,3.25
2022-09-25T13:10:33.269Z,6.90
2022-09-25T13:13:02.501Z,4.75
2022-09-25T13:15:33.153Z,2.80
2022-09-25T13:18:00.171Z,4.88
2022-09-25T13:20:47.922Z,4.90
2022-09-25T13:23:39.222Z,4.10
2022-09-25T13:26:14.346Z,4.32
2022-09-25T13:28:50.430Z,3.28
2022-09-25T13:31:44.839Z,4.60
2022-09-25T13:34:16.627Z,3.95
2022-09-25T13:36:48.377Z,6.03
2022-09-25T13:39:58.488Z,3.78
2022-09-25T13:42:46.846Z,4.63
2022-09-25T13:45:32.718Z,4.07
2022-09-25T13:48:09.788Z,6.05
2022-09-25T13:50:41.527Z,4.20
2022-09-25T13:53:26.452Z,4.38
2022-09-25T13:56:15.741Z,6.88
2022-09-25T13:59:32.764Z,7.25
2022-09-25T14:02:37.774Z,4.95
2022-09-25T14:05:05.236Z,5.35
2022-09-25T14:07:32.034Z,3.00
2022-09-25T14:10:01.165Z,6.93
2022-09-25T14:12:52.099Z,4.72
2022-09-25T14:15:23.263Z,5.22
2022-09-25T14:17:52.480Z,4.18
2022-09-25T14:20:30.297Z,4.35
2022-09-25T14:23:00.255Z,5.15
2022-09-25T14:25:38.629Z,5.35
2022-09-25T14:28:20.739Z,4.63
2022-09-25T14:31:14.889Z,4.70
2022-09-25T14:34:28.555Z,4.43
2022-09-25T14:37:40.441Z,5.75
2022-09-25T14:40:19.871Z,3.33
2022-09-25T14:46:21.208Z,5.30
2022-09-25T14:48:51.727Z,4.28
2022-09-25T14:51:41.182Z,6.20
2022-09-25T14:54:10.001Z,4.53
2022-09-25T14:56:37.670Z,5.68
2022-09-25T14:59:13.752Z,1.77
2022-09-25T15:01:49.189Z,2.55
2022-09-25T15:04:33.043Z,3.20
2022-09-25T15:07:04.791Z,2.67
2022-09-25T15:09:47.318Z,2.63
2022-09-25T15:12:32.036Z,3.00
2022-09-25T15:17:43.738Z,3.70
2022-09-25T15:20:14.546Z,2.90
2022-09-25T15:22:42.640Z,2.53
2022-09-25T15:25:21.310Z,2.65
2022-09-25T15:27:48.108Z,2.55
2022-09-25T15:30:16.793Z,2.63
2022-09-25T15:32:44.252Z,2.65
2022-09-25T15:35:31.517Z,5.50
2022-09-25T15:38:31.716Z,3.15
2022-09-25T15:40:58.968Z,9.30
2022-09-25T15:43:25.921Z,2.88
2022-09-25T15:46:00.653Z,4.07
2022-09-25T15:48:32.804Z,4.22
2022-09-25T15:51:14.984Z,4.10
2022-09-25T15:53:52.195Z,2.13
2022-09-25T15:56:22.735Z,3.33
2022-09-25T15:58:55.603Z,2.58
2022-09-25T16:01:43.867Z,4.20
2022-09-25T16:04:38.650Z,3.10
2022-09-25T16:07:29.236Z,2.17
2022-09-25T16:10:17.678Z,3.17
2022-09-25T16:12:50.994Z,1.90
2022-09-25T16:15:45.884Z,4.55
2022-09-25T16:23:55.727Z,5.53
2022-09-25T16:26:24.540Z,4.75
2022-09-25T16:29:24.572Z,3.40
2022-09-25T16:31:56.397Z,4.65
2022-09-25T16:34:40.990Z,4.88
2022-09-25T16:37:22.110Z,6.82
2022-09-25T16:40:09.663Z,5.60
2022-09-25T16:42:42.458Z,5.97
2022-09-25T16:45:22.990Z,5.07
2022-09-25T16:47:50.686Z,7.07
2022-09-25T16:50:19.267Z,6.38
2022-09-25T16:52:46.424Z,5.95
2022-09-25T16:55:23.388Z,5.13
2022-09-25T16:57:54.290Z,4.53
2022-09-25T17:00:24.334Z,6.35
2022-09-25T17:02:51.486Z,4.15
2022-09-25T17:05:27.928Z,3.33
2022-09-25T17:07:57.090Z,5.90
2022-09-25T17:10:29.029Z,5.00
2022-09-25T17:12:57.847Z,4.05
2022-09-25T17:15:29.806Z,4.60
2022-09-25T17:17:56.761Z,7.20
2022-09-25T17:20:24.712Z,7.03
2022-09-25T17:22:54.259Z,4.93
2022-09-25T17:25:45.447Z,6.13
2022-09-25T17:28:12.817Z,4.93
2022-09-25T17:30:40.199Z,3.75
2022-09-25T17:33:09.750Z,4.13
2022-09-25T17:35:51.937Z,4.13
2022-09-25T17:38:19.293Z,2.33
2022-09-25T17:40:48.325Z,5.25
2022-09-25T17:43:16.011Z,4.85
2022-09-25T17:45:50.870Z,4.75
2022-09-25T17:48:23.597Z,5.00
2022-09-25T17:51:01.352Z,3.58
2022-09-25T17:53:30.405Z,4.45
2022-09-25T17:55:58.026Z,4.38
2022-09-25T17:58:26.297Z,4.43
2022-09-25T18:00:54.444Z,5.03
2022-09-25T18:03:21.397Z,3.95
2022-09-25T18:05:48.635Z,5.30
2022-09-25T18:08:16.863Z,7.95
2022-09-25T18:10:44.279Z,4.95
2022-09-25T18:13:17.463Z,5.57
2022-09-25T18:15:48.287Z,7.07
2022-09-25T18:18:15.557Z,8.63
2022-09-25T18:21:05.655Z,8.25
2022-09-25T18:23:36.040Z,5.78
2022-09-25T18:26:04.230Z,10.63
2022-09-25T18:28:31.404Z,9.35
2022-09-25T18:30:58.496Z,7.30
2022-09-25T18:33:25.779Z,6.25
2022-09-25T18:35:53.264Z,5.63
2022-09-25T18:38:20.086Z,6.28
2022-09-25T18:40:47.003Z,5.60
2022-09-25T18:43:13.872Z,4.43
2022-09-25T18:45:42.296Z,7.65
2022-09-25T18:48:09.150Z,5.47
2022-09-25T18:50:35.855Z,7.97
2022-09-25T18:53:02.838Z,6.85
2022-09-25T18:55:29.968Z,4.63
2022-09-25T18:57:57.474Z,4.55
2022-09-25T19:00:24.188Z,8.05
2022-09-25T19:02:53.874Z,4.80
2022-09-25T19:05:21.050Z,4.47
2022-09-25T19:07:47.704Z,5.38
2022-09-25T19:10:14.349Z,7.43
2022-09-25T19:12:41.206Z,7.20
2022-09-25T19:15:08.621Z,10.23
2022-09-25T19:17:35.881Z,11.45
2022-09-25T19:20:02.671Z,13.10
2022-09-25T19:22:29.435Z,13.07
2022-09-25T19:24:57.199Z,10.38
2022-09-25T19:27:25.931Z,6.90
2022-09-25T19:29:52.925Z,6.43
2022-09-25T19:32:19.897Z,5.22
2022-09-25T19:34:47.148Z,5.65
2022-09-25T19:37:15.012Z,14.40
2022-09-25T19:40:00.398Z,20.25
2022-09-25T19:42:28.205Z,36.97
2022-09-25T19:44:56.626Z,37.15
2022-09-25T19:47:23.868Z,59.80
2022-09-25T19:49:50.712Z,26.50
2022-09-25T19:52:17.571Z,11.77
2022-09-25T19:54:44.378Z,6.85
2022-09-25T19:57:11.432Z,7.07
2022-09-25T19:59:38.408Z,7.18
2022-09-25T20:02:05.848Z,8.60
2022-09-25T20:04:32.940Z,7.40
2022-09-25T20:06:59.669Z,7.95
2022-09-25T20:09:30.263Z,10.15
2022-09-25T20:11:56.931Z,10.85
2022-09-25T20:14:25.862Z,13.85
2022-09-25T20:16:54.174Z,12.70
2022-09-25T20:19:21.349Z,12.25
2022-09-25T20:21:48.584Z,10.65
2022-09-25T20:24:15.646Z,12.32
2022-09-25T20:26:42.555Z,7.07
2022-09-25T20:29:12.810Z,10.55
2022-09-25T20:31:42.113Z,7.15
2022-09-25T20:34:13.337Z,10.35
2022-09-25T20:36:40.138Z,8.82
2022-09-25T20:39:07.334Z,6.75
2022-09-25T20:41:34.756Z,8.52
2022-09-25T20:44:02.284Z,6.18
2022-09-25T20:46:30.246Z,8.82
2022-09-25T20:48:57.998Z,6.88
2022-09-25T20:51:30.249Z,7.35
2022-09-25T20:53:59.946Z,5.68
2022-09-25T20:56:31.368Z,7.95
2022-09-25T20:58:58.936Z,7.28
2022-09-25T21:01:29.889Z,7.50
2022-09-25T21:04:00.194Z,8.07
2022-09-25T21:06:29.653Z,7.45
2022-09-25T21:08:58.851Z,7.03
2022-09-25T21:11:25.912Z,10.40
2022-09-25T21:13:55.300Z,8.98
2022-09-25T21:16:23.068Z,8.35
2022-09-25T21:18:55.125Z,7.10
2022-09-25T21:21:23.580Z,8.73
2022-09-25T21:23:53.569Z,8.27
2022-09-25T21:26:20.816Z,6.10
2022-09-25T21:28:51.953Z,6.57
2022-09-25T21:31:24.076Z,6.82
2022-09-25T21:33:55.315Z,5.88
2022-09-25T21:36:22.834Z,8.70
2022-09-25T21:38:49.738Z,9.98
2022-09-25T21:41:20.416Z,6.78
2022-09-25T21:43:47.633Z,8.70
2022-09-25T21:46:18.934Z,9.63
2022-09-25T21:48:54.271Z,20.13
2022-09-25T21:51:24.034Z,20.08
2022-09-25T21:53:51.058Z,19.52
2022-09-25T21:56:20.050Z,13.88
2022-09-25T21:58:47.064Z,11.90
2022-09-25T22:01:16.760Z,9.57
2022-09-25T22:03:48.436Z,12.10
2022-09-25T22:06:19.944Z,10.13
2022-09-25T22:08:49.569Z,9.10
2022-09-25T22:11:17.192Z,9.32
2022-09-25T22:13:45.801Z,7.53
2022-09-25T22:16:24.562Z,12.75
2022-09-25T22:19:12.586Z,14.57
2022-09-25T22:21:40.058Z,12.98
2022-09-25T22:24:08.052Z,13.30
2022-09-25T22:26:36.719Z,13.00
2022-09-25T22:29:04.341Z,7.32
2022-09-25T22:31:33.246Z,8.52
2022-09-25T22:34:08.723Z,7.68
2022-09-25T22:36:36.583Z,13.55
2022-09-25T22:39:04.767Z,12.88
2022-09-25T22:41:32.537Z,9.52
2022-09-25T22:44:00.955Z,10.15
2022-09-25T22:46:28.603Z,7.97
2022-09-25T22:48:55.704Z,6.68
2022-09-25T22:51:24.247Z,7.45
2022-09-25T22:53:52.420Z,8.30
2022-09-25T22:56:24.664Z,7.72
2022-09-25T22:58:54.392Z,7.95
2022-09-25T23:01:25.713Z,5.72
2022-09-25T23:03:57.426Z,5.68
2022-09-25T23:06:24.923Z,6.32
2022-09-25T23:08:56.409Z,8.80
2022-09-25T23:11:24.142Z,6.78
2022-09-25T23:13:57.999Z,8.00
2022-09-25T23:16:25.565Z,8.43
2022-09-25T23:18:52.288Z,9.63
2022-09-25T23:21:19.152Z,7.28
2022-09-25T23:23:45.868Z,6.07
2022-09-25T23:26:12.694Z,9.25
2022-09-25T23:28:40.536Z,7.43
2022-09-25T23:31:10.201Z,8.00
2022-09-25T23:33:37.574Z,7.72
2022-09-25T23:36:09.753Z,10.13
2022-09-25T23:38:37.613Z,7.63
2022-09-25T23:41:37.408Z,9.73
2022-09-25T23:44:06.616Z,8.68
2022-09-25T23:46:36.475Z,9.85
2022-09-25T23:49:04.539Z,8.93
2022-09-25T23:51:31.579Z,7.00
2022-09-25T23:53:59.923Z,6.80
2022-09-25T23:56:31.382Z,8.93
2022-09-25T23:59:01.279Z,7.85
